sensor_id;sensor_type;location;lat;lon;timestamp;P1;durP1;ratioP1;P2;durP2;ratioP2
19434;SDS011;9853;50.848;4.108;2023-05-24T00:01:25;13.93;;;2.10;;
19434;SDS011;9853;50.848;4.108;2023-05-24T00:03:26;16.83;;;2.58;;
19434;SDS011;9853;50.848;4.108;2023-05-24T00:05:29;18.15;;;2.30;;
19434;SDS011;9853;50.848;4.108;2023-05-24T00:07:30;18.70;;;2.50;;
19434;SDS011;9853;50.848;4.108;2023-05-24T00:09:31;13.45;;;2.05;;
19434;SDS011;9853;50.848;4.108;2023-05-24T00:11:32;14.88;;;2.20;;
19434;SDS011;9853;50.848;4.108;2023-05-24T00:13:33;8.48;;;2.30;;
19434;SDS011;9853;50.848;4.108;2023-05-24T00:15:33;16.83;;;2.60;;
19434;SDS011;9853;50.848;4.108;2023-05-24T00:17:34;12.80;;;2.40;;
19434;SDS011;9853;50.848;4.108;2023-05-24T00:19:40;13.05;;;2.30;;
19434;SDS011;9853;50.848;4.108;2023-05-24T00:21:41;19.58;;;3.05;;
19434;SDS011;9853;50.848;4.108;2023-05-24T00:23:43;17.65;;;2.55;;
19434;SDS011;9853;50.848;4.108;2023-05-24T00:25:44;23.05;;;2.67;;
19434;SDS011;9853;50.848;4.108;2023-05-24T00:27:45;10.47;;;2.37;;
19434;SDS011;9853;50.848;4.108;2023-05-24T00:29:46;20.55;;;2.70;;
19434;SDS011;9853;50.848;4.108;2023-05-24T00:31:46;18.02;;;3.20;;
19434;SDS011;9853;50.848;4.108;2023-05-24T00:33:47;15.68;;;2.40;;
19434;SDS011;9853;50.848;4.108;2023-05-24T00:35:48;21.42;;;2.50;;
19434;SDS011;9853;50.848;4.108;2023-05-24T00:37:55;22.58;;;2.70;;
19434;SDS011;9853;50.848;4.108;2023-05-24T00:39:56;11.75;;;2.40;;
19434;SDS011;9853;50.848;4.108;2023-05-24T00:41:57;18.83;;;2.47;;
19434;SDS011;9853;50.848;4.108;2023-05-24T00:43:57;18.17;;;2.78;;
19434;SDS011;9853;50.848;4.108;2023-05-24T00:48:19;16.85;;;2.45;;
19434;SDS011;9853;50.848;4.108;2023-05-24T00:50:23;14.30;;;2.42;;
19434;SDS011;9853;50.848;4.108;2023-05-24T00:52:24;16.25;;;2.55;;
19434;SDS011;9853;50.848;4.108;2023-05-24T00:54:25;17.42;;;3.10;;
19434;SDS011;9853;50.848;4.108;2023-05-24T00:56:26;15.80;;;3.03;;
19434;SDS011;9853;50.848;4.108;2023-05-24T00:58:27;19.98;;;2.83;;
19434;SDS011;9853;50.848;4.108;2023-05-24T01:00:30;12.73;;;3.20;;
19434;SDS011;9853;50.848;4.108;2023-05-24T01:02:31;18.38;;;3.17;;
19434;SDS011;9853;50.848;4.108;2023-05-24T01:04:32;15.55;;;2.58;;
19434;SDS011;9853;50.848;4.108;2023-05-24T01:06:35;20.55;;;3.38;;
19434;SDS011;9853;50.848;4.108;2023-05-24T01:11:29;19.38;;;3.05;;
19434;SDS011;9853;50.848;4.108;2023-05-24T01:13:51;12.00;;;2.20;;
19434;SDS011;9853;50.848;4.108;2023-05-24T01:16:06;14.30;;;3.10;;
19434;SDS011;9853;50.848;4.108;2023-05-24T01:18:53;18.20;;;3.27;;
19434;SDS011;9853;50.848;4.108;2023-05-24T01:20:38;14.30;;;2.83;;
19434;SDS011;9853;50.848;4.108;2023-05-24T01:22:49;18.07;;;3.43;;
19434;SDS011;9853;50.848;4.108;2023-05-24T01:27:26;16.58;;;3.33;;
19434;SDS011;9853;50.848;4.108;2023-05-24T01:29:28;16.57;;;3.20;;
19434;SDS011;9853;50.848;4.108;2023-05-24T01:31:32;15.68;;;3.35;;
19434;SDS011;9853;50.848;4.108;2023-05-24T01:33:34;23.05;;;3.45;;
19434;SDS011;9853;50.848;4.108;2023-05-24T01:35:40;25.03;;;3.40;;
19434;SDS011;9853;50.848;4.108;2023-05-24T01:37:41;18.35;;;3.33;;
19434;SDS011;9853;50.848;4.108;2023-05-24T01:39:42;12.07;;;2.75;;
19434;SDS011;9853;50.848;4.108;2023-05-24T01:42:03;14.70;;;3.03;;
19434;SDS011;9853;50.848;4.108;2023-05-24T01:46:43;17.10;;;3.43;;
19434;SDS011;9853;50.848;4.108;2023-05-24T01:51:12;14.13;;;2.97;;
19434;SDS011;9853;50.848;4.108;2023-05-24T01:53:18;18.30;;;3.47;;
19434;SDS011;9853;50.848;4.108;2023-05-24T01:55:22;18.97;;;3.20;;
19434;SDS011;9853;50.848;4.108;2023-05-24T01:57:26;14.38;;;3.17;;
19434;SDS011;9853;50.848;4.108;2023-05-24T01:59:28;21.13;;;3.50;;
19434;SDS011;9853;50.848;4.108;2023-05-24T02:01:30;12.87;;;3.03;;
19434;SDS011;9853;50.848;4.108;2023-05-24T02:03:31;20.35;;;3.80;;
19434;SDS011;9853;50.848;4.108;2023-05-24T02:05:33;16.52;;;3.58;;
19434;SDS011;9853;50.848;4.108;2023-05-24T02:07:36;16.23;;;3.70;;
19434;SDS011;9853;50.848;4.108;2023-05-24T02:09:37;21.85;;;3.95;;
19434;SDS011;9853;50.848;4.108;2023-05-24T02:11:39;23.53;;;4.07;;
19434;SDS011;9853;50.848;4.108;2023-05-24T02:13:40;23.45;;;3.90;;
19434;SDS011;9853;50.848;4.108;2023-05-24T02:15:41;17.73;;;3.37;;
19434;SDS011;9853;50.848;4.108;2023-05-24T02:17:46;23.70;;;4.57;;
19434;SDS011;9853;50.848;4.108;2023-05-24T02:19:47;16.97;;;3.43;;
19434;SDS011;9853;50.848;4.108;2023-05-24T02:21:48;16.48;;;3.75;;
19434;SDS011;9853;50.848;4.108;2023-05-24T02:23:48;13.07;;;3.70;;
19434;SDS011;9853;50.848;4.108;2023-05-24T02:25:49;22.38;;;3.83;;
19434;SDS011;9853;50.848;4.108;2023-05-24T02:27:50;19.35;;;4.13;;
19434;SDS011;9853;50.848;4.108;2023-05-24T02:29:51;22.93;;;4.00;;
19434;SDS011;9853;50.848;4.108;2023-05-24T02:31:51;21.67;;;3.97;;
19434;SDS011;9853;50.848;4.108;2023-05-24T02:33:56;19.98;;;4.43;;
19434;SDS011;9853;50.848;4.108;2023-05-24T02:35:57;18.00;;;3.70;;
19434;SDS011;9853;50.848;4.108;2023-05-24T02:37:58;20.20;;;3.83;;
19434;SDS011;9853;50.848;4.108;2023-05-24T02:40:00;11.73;;;3.53;;
19434;SDS011;9853;50.848;4.108;2023-05-24T02:42:01;19.42;;;3.80;;
19434;SDS011;9853;50.848;4.108;2023-05-24T02:44:03;20.53;;;3.23;;
19434;SDS011;9853;50.848;4.108;2023-05-24T02:46:04;15.40;;;3.70;;
19434;SDS011;9853;50.848;4.108;2023-05-24T02:48:05;20.20;;;3.72;;
19434;SDS011;9853;50.848;4.108;2023-05-24T02:50:06;17.07;;;3.93;;
19434;SDS011;9853;50.848;4.108;2023-05-24T02:52:07;13.00;;;3.22;;
19434;SDS011;9853;50.848;4.108;2023-05-24T02:54:08;12.40;;;3.17;;
19434;SDS011;9853;50.848;4.108;2023-05-24T02:56:09;18.20;;;3.33;;
19434;SDS011;9853;50.848;4.108;2023-05-24T02:58:11;10.20;;;3.10;;
19434;SDS011;9853;50.848;4.108;2023-05-24T03:00:13;16.55;;;3.42;;
19434;SDS011;9853;50.848;4.108;2023-05-24T03:02:16;14.07;;;3.42;;
19434;SDS011;9853;50.848;4.108;2023-05-24T03:04:18;13.25;;;3.42;;
19434;SDS011;9853;50.848;4.108;2023-05-24T03:06:19;12.30;;;3.55;;
19434;SDS011;9853;50.848;4.108;2023-05-24T03:08:20;13.07;;;3.57;;
19434;SDS011;9853;50.848;4.108;2023-05-24T03:10:21;19.63;;;3.43;;
19434;SDS011;9853;50.848;4.108;2023-05-24T03:12:22;19.93;;;3.60;;
19434;SDS011;9853;50.848;4.108;2023-05-24T03:14:22;19.27;;;4.03;;
19434;SDS011;9853;50.848;4.108;2023-05-24T03:16:25;16.33;;;4.20;;
19434;SDS011;9853;50.848;4.108;2023-05-24T03:18:25;18.70;;;4.20;;
19434;SDS011;9853;50.848;4.108;2023-05-24T03:20:27;21.57;;;4.37;;
19434;SDS011;9853;50.848;4.108;2023-05-24T03:22:28;17.77;;;4.17;;
19434;SDS011;9853;50.848;4.108;2023-05-24T03:24:29;25.27;;;5.10;;
19434;SDS011;9853;50.848;4.108;2023-05-24T03:26:30;16.20;;;4.40;;
19434;SDS011;9853;50.848;4.108;2023-05-24T03:28:31;24.00;;;5.37;;
19434;SDS011;9853;50.848;4.108;2023-05-24T03:30:33;22.53;;;5.37;;
19434;SDS011;9853;50.848;4.108;2023-05-24T03:32:35;17.23;;;4.63;;
19434;SDS011;9853;50.848;4.108;2023-05-24T03:34:36;17.40;;;4.60;;
19434;SDS011;9853;50.848;4.108;2023-05-24T03:36:36;18.70;;;4.87;;
19434;SDS011;9853;50.848;4.108;2023-05-24T03:38:38;16.10;;;4.38;;
19434;SDS011;9853;50.848;4.108;2023-05-24T03:40:39;14.63;;;4.23;;
19434;SDS011;9853;50.848;4.108;2023-05-24T03:42:51;15.37;;;3.97;;
19434;SDS011;9853;50.848;4.108;2023-05-24T03:44:53;13.00;;;3.83;;
19434;SDS011;9853;50.848;4.108;2023-05-24T03:46:54;15.53;;;3.67;;
19434;SDS011;9853;50.848;4.108;2023-05-24T03:48:55;17.67;;;4.63;;
19434;SDS011;9853;50.848;4.108;2023-05-24T03:50:56;14.70;;;4.13;;
19434;SDS011;9853;50.848;4.108;2023-05-24T03:52:57;17.20;;;4.77;;
19434;SDS011;9853;50.848;4.108;2023-05-24T03:54:57;13.03;;;3.50;;
19434;SDS011;9853;50.848;4.108;2023-05-24T03:56:58;17.57;;;3.87;;
19434;SDS011;9853;50.848;4.108;2023-05-24T03:58:59;11.67;;;3.70;;
19434;SDS011;9853;50.848;4.108;2023-05-24T04:01:03;20.20;;;4.23;;
19434;SDS011;9853;50.848;4.108;2023-05-24T04:03:03;12.17;;;3.47;;
19434;SDS011;9853;50.848;4.108;2023-05-24T04:05:05;16.70;;;4.17;;
19434;SDS011;9853;50.848;4.108;2023-05-24T04:07:09;21.37;;;5.53;;
19434;SDS011;9853;50.848;4.108;2023-05-24T04:09:11;22.75;;;5.15;;
19434;SDS011;9853;50.848;4.108;2023-05-24T04:11:12;31.08;;;5.45;;
19434;SDS011;9853;50.848;4.108;2023-05-24T04:13:13;21.87;;;4.83;;
19434;SDS011;9853;50.848;4.108;2023-05-24T04:15:14;15.68;;;4.90;;
19434;SDS011;9853;50.848;4.108;2023-05-24T04:17:15;27.80;;;5.80;;
19434;SDS011;9853;50.848;4.108;2023-05-24T04:19:17;29.87;;;4.87;;
19434;SDS011;9853;50.848;4.108;2023-05-24T04:21:18;25.33;;;4.60;;
19434;SDS011;9853;50.848;4.108;2023-05-24T04:23:19;20.73;;;4.60;;
19434;SDS011;9853;50.848;4.108;2023-05-24T04:25:20;22.73;;;5.03;;
19434;SDS011;9853;50.848;4.108;2023-05-24T04:27:21;16.48;;;4.55;;
19434;SDS011;9853;50.848;4.108;2023-05-24T04:29:25;20.15;;;4.90;;
19434;SDS011;9853;50.848;4.108;2023-05-24T04:31:25;18.00;;;4.80;;
19434;SDS011;9853;50.848;4.108;2023-05-24T04:33:29;18.02;;;4.65;;
19434;SDS011;9853;50.848;4.108;2023-05-24T04:35:32;22.65;;;4.63;;
19434;SDS011;9853;50.848;4.108;2023-05-24T04:37:33;21.60;;;5.68;;
19434;SDS011;9853;50.848;4.108;2023-05-24T04:39:34;27.17;;;5.28;;
19434;SDS011;9853;50.848;4.108;2023-05-24T04:41:34;21.13;;;5.40;;
19434;SDS011;9853;50.848;4.108;2023-05-24T04:43:36;19.33;;;4.63;;
19434;SDS011;9853;50.848;4.108;2023-05-24T04:45:37;23.30;;;4.80;;
19434;SDS011;9853;50.848;4.108;2023-05-24T04:47:38;23.73;;;5.03;;
19434;SDS011;9853;50.848;4.108;2023-05-24T04:49:40;25.75;;;5.13;;
19434;SDS011;9853;50.848;4.108;2023-05-24T04:51:41;22.90;;;4.93;;
19434;SDS011;9853;50.848;4.108;2023-05-24T04:53:41;15.93;;;4.70;;
19434;SDS011;9853;50.848;4.108;2023-05-24T04:55:43;20.63;;;4.75;;
19434;SDS011;9853;50.848;4.108;2023-05-24T04:57:43;25.92;;;6.00;;
19434;SDS011;9853;50.848;4.108;2023-05-24T04:59:44;17.17;;;5.35;;
19434;SDS011;9853;50.848;4.108;2023-05-24T05:01:45;28.92;;;6.00;;
19434;SDS011;9853;50.848;4.108;2023-05-24T05:03:46;26.70;;;5.40;;
19434;SDS011;9853;50.848;4.108;2023-05-24T05:05:47;23.52;;;5.50;;
19434;SDS011;9853;50.848;4.108;2023-05-24T05:07:48;25.58;;;6.32;;
19434;SDS011;9853;50.848;4.108;2023-05-24T05:09:48;17.13;;;4.70;;
19434;SDS011;9853;50.848;4.108;2023-05-24T05:11:49;17.20;;;5.35;;
19434;SDS011;9853;50.848;4.108;2023-05-24T05:13:50;25.85;;;6.07;;
19434;SDS011;9853;50.848;4.108;2023-05-24T05:15:51;26.48;;;6.20;;
19434;SDS011;9853;50.848;4.108;2023-05-24T05:17:52;26.73;;;5.70;;
19434;SDS011;9853;50.848;4.108;2023-05-24T05:19:53;16.60;;;4.78;;
19434;SDS011;9853;50.848;4.108;2023-05-24T05:21:54;14.63;;;4.55;;
19434;SDS011;9853;50.848;4.108;2023-05-24T05:23:55;18.17;;;4.50;;
19434;SDS011;9853;50.848;4.108;2023-05-24T05:25:56;26.02;;;4.78;;
19434;SDS011;9853;50.848;4.108;2023-05-24T05:27:56;20.38;;;5.10;;
19434;SDS011;9853;50.848;4.108;2023-05-24T05:29:57;15.15;;;5.35;;
19434;SDS011;9853;50.848;4.108;2023-05-24T05:31:58;17.75;;;5.50;;
19434;SDS011;9853;50.848;4.108;2023-05-24T05:33:59;22.20;;;5.72;;
19434;SDS011;9853;50.848;4.108;2023-05-24T05:35:59;18.00;;;4.75;;
19434;SDS011;9853;50.848;4.108;2023-05-24T05:38:00;16.88;;;5.20;;
19434;SDS011;9853;50.848;4.108;2023-05-24T05:40:01;28.58;;;5.22;;
19434;SDS011;9853;50.848;4.108;2023-05-24T05:42:03;26.73;;;5.85;;
19434;SDS011;9853;50.848;4.108;2023-05-24T05:44:04;21.88;;;5.15;;
19434;SDS011;9853;50.848;4.108;2023-05-24T05:46:05;22.20;;;5.38;;
19434;SDS011;9853;50.848;4.108;2023-05-24T05:48:06;24.30;;;5.53;;
19434;SDS011;9853;50.848;4.108;2023-05-24T05:50:07;24.17;;;5.82;;
19434;SDS011;9853;50.848;4.108;2023-05-24T05:52:08;26.05;;;5.72;;
19434;SDS011;9853;50.848;4.108;2023-05-24T05:54:09;23.63;;;5.72;;
19434;SDS011;9853;50.848;4.108;2023-05-24T05:56:14;26.08;;;5.63;;
19434;SDS011;9853;50.848;4.108;2023-05-24T05:58:15;27.70;;;5.50;;
19434;SDS011;9853;50.848;4.108;2023-05-24T06:00:16;19.70;;;5.10;;
19434;SDS011;9853;50.848;4.108;2023-05-24T06:02:17;23.55;;;5.88;;
19434;SDS011;9853;50.848;4.108;2023-05-24T06:04:18;22.98;;;5.25;;
19434;SDS011;9853;50.848;4.108;2023-05-24T06:06:19;21.98;;;4.78;;
19434;SDS011;9853;50.848;4.108;2023-05-24T06:08:20;22.08;;;5.28;;
19434;SDS011;9853;50.848;4.108;2023-05-24T06:10:21;20.00;;;5.13;;
19434;SDS011;9853;50.848;4.108;2023-05-24T06:12:21;18.67;;;4.88;;
19434;SDS011;9853;50.848;4.108;2023-05-24T06:14:22;28.48;;;5.10;;
19434;SDS011;9853;50.848;4.108;2023-05-24T06:16:24;25.55;;;5.30;;
19434;SDS011;9853;50.848;4.108;2023-05-24T06:18:25;26.45;;;5.13;;
19434;SDS011;9853;50.848;4.108;2023-05-24T06:20:26;27.00;;;5.15;;
19434;SDS011;9853;50.848;4.108;2023-05-24T06:22:27;29.98;;;5.50;;
19434;SDS011;9853;50.848;4.108;2023-05-24T06:24:28;25.02;;;5.32;;
19434;SDS011;9853;50.848;4.108;2023-05-24T06:26:29;19.08;;;5.68;;
19434;SDS011;9853;50.848;4.108;2023-05-24T06:28:30;23.75;;;4.88;;
19434;SDS011;9853;50.848;4.108;2023-05-24T06:30:31;22.40;;;5.47;;
19434;SDS011;9853;50.848;4.108;2023-05-24T06:32:32;23.38;;;5.00;;
19434;SDS011;9853;50.848;4.108;2023-05-24T06:34:33;25.77;;;5.57;;
19434;SDS011;9853;50.848;4.108;2023-05-24T06:36:34;28.25;;;4.68;;
19434;SDS011;9853;50.848;4.108;2023-05-24T06:38:41;23.13;;;4.97;;
19434;SDS011;9853;50.848;4.108;2023-05-24T06:40:42;23.88;;;4.90;;
19434;SDS011;9853;50.848;4.108;2023-05-24T06:42:43;31.65;;;5.57;;
19434;SDS011;9853;50.848;4.108;2023-05-24T06:44:44;22.98;;;5.20;;
19434;SDS011;9853;50.848;4.108;2023-05-24T06:46:45;28.35;;;6.22;;
19434;SDS011;9853;50.848;4.108;2023-05-24T06:48:46;31.42;;;5.40;;
19434;SDS011;9853;50.848;4.108;2023-05-24T06:50:47;31.33;;;5.45;;
19434;SDS011;9853;50.848;4.108;2023-05-24T06:52:48;21.55;;;4.70;;
19434;SDS011;9853;50.848;4.108;2023-05-24T06:54:49;24.05;;;4.93;;
19434;SDS011;9853;50.848;4.108;2023-05-24T06:56:49;20.15;;;4.90;;
19434;SDS011;9853;50.848;4.108;2023-05-24T06:58:50;26.55;;;4.70;;
19434;SDS011;9853;50.848;4.108;2023-05-24T07:00:51;24.35;;;5.72;;
19434;SDS011;9853;50.848;4.108;2023-05-24T07:02:52;28.23;;;5.65;;
19434;SDS011;9853;50.848;4.108;2023-05-24T07:04:53;24.20;;;5.38;;
19434;SDS011;9853;50.848;4.108;2023-05-24T07:06:54;26.17;;;5.32;;
19434;SDS011;9853;50.848;4.108;2023-05-24T07:08:54;24.02;;;4.90;;
19434;SDS011;9853;50.848;4.108;2023-05-24T07:10:55;31.92;;;4.95;;
19434;SDS011;9853;50.848;4.108;2023-05-24T07:12:56;16.80;;;4.82;;
19434;SDS011;9853;50.848;4.108;2023-05-24T07:14:57;23.73;;;4.88;;
19434;SDS011;9853;50.848;4.108;2023-05-24T07:16:57;30.05;;;5.60;;
19434;SDS011;9853;50.848;4.108;2023-05-24T07:18:58;28.67;;;6.20;;
19434;SDS011;9853;50.848;4.108;2023-05-24T07:21:00;27.83;;;4.45;;
19434;SDS011;9853;50.848;4.108;2023-05-24T07:23:00;23.23;;;5.10;;
19434;SDS011;9853;50.848;4.108;2023-05-24T07:25:02;29.98;;;4.43;;
19434;SDS011;9853;50.848;4.108;2023-05-24T07:27:04;19.77;;;4.45;;
19434;SDS011;9853;50.848;4.108;2023-05-24T07:29:05;17.80;;;3.80;;
19434;SDS011;9853;50.848;4.108;2023-05-24T07:31:07;34.20;;;5.03;;
19434;SDS011;9853;50.848;4.108;2023-05-24T07:33:08;22.70;;;4.47;;
19434;SDS011;9853;50.848;4.108;2023-05-24T07:35:10;23.42;;;4.07;;
19434;SDS011;9853;50.848;4.108;2023-05-24T07:37:13;21.58;;;4.07;;
19434;SDS011;9853;50.848;4.108;2023-05-24T07:39:15;30.23;;;4.03;;
19434;SDS011;9853;50.848;4.108;2023-05-24T07:41:16;27.02;;;4.32;;
19434;SDS011;9853;50.848;4.108;2023-05-24T07:43:18;21.77;;;5.00;;
19434;SDS011;9853;50.848;4.108;2023-05-24T07:45:19;20.42;;;4.90;;
19434;SDS011;9853;50.848;4.108;2023-05-24T07:47:20;22.92;;;5.03;;
19434;SDS011;9853;50.848;4.108;2023-05-24T07:49:20;19.50;;;3.90;;
19434;SDS011;9853;50.848;4.108;2023-05-24T07:51:21;20.02;;;4.07;;
19434;SDS011;9853;50.848;4.108;2023-05-24T07:53:22;23.38;;;4.60;;
19434;SDS011;9853;50.848;4.108;2023-05-24T07:55:23;21.77;;;4.35;;
19434;SDS011;9853;50.848;4.108;2023-05-24T07:57:24;23.00;;;4.13;;
19434;SDS011;9853;50.848;4.108;2023-05-24T07:59:25;17.67;;;4.00;;
19434;SDS011;9853;50.848;4.108;2023-05-24T08:01:26;21.95;;;4.22;;
19434;SDS011;9853;50.848;4.108;2023-05-24T08:03:27;17.13;;;4.13;;
19434;SDS011;9853;50.848;4.108;2023-05-24T08:05:28;21.52;;;5.10;;
19434;SDS011;9853;50.848;4.108;2023-05-24T08:07:29;21.13;;;4.93;;
19434;SDS011;9853;50.848;4.108;2023-05-24T08:09:30;20.27;;;4.47;;
19434;SDS011;9853;50.848;4.108;2023-05-24T08:11:34;20.98;;;5.07;;
19434;SDS011;9853;50.848;4.108;2023-05-24T08:13:35;18.75;;;4.70;;
19434;SDS011;9853;50.848;4.108;2023-05-24T08:15:36;18.25;;;4.82;;
19434;SDS011;9853;50.848;4.108;2023-05-24T08:17:37;24.08;;;5.20;;
19434;SDS011;9853;50.848;4.108;2023-05-24T08:19:38;23.70;;;5.32;;
19434;SDS011;9853;50.848;4.108;2023-05-24T08:21:39;25.83;;;4.80;;
19434;SDS011;9853;50.848;4.108;2023-05-24T08:23:41;23.35;;;5.78;;
19434;SDS011;9853;50.848;4.108;2023-05-24T08:25:42;18.38;;;5.13;;
19434;SDS011;9853;50.848;4.108;2023-05-24T08:27:43;20.42;;;4.85;;
19434;SDS011;9853;50.848;4.108;2023-05-24T08:29:43;25.08;;;4.80;;
19434;SDS011;9853;50.848;4.108;2023-05-24T08:31:44;18.50;;;4.57;;
19434;SDS011;9853;50.848;4.108;2023-05-24T08:33:45;22.58;;;4.97;;
19434;SDS011;9853;50.848;4.108;2023-05-24T08:35:49;16.90;;;4.45;;
19434;SDS011;9853;50.848;4.108;2023-05-24T08:37:50;17.92;;;4.53;;
19434;SDS011;9853;50.848;4.108;2023-05-24T08:39:51;19.13;;;4.53;;
19434;SDS011;9853;50.848;4.108;2023-05-24T08:41:52;19.80;;;3.80;;
19434;SDS011;9853;50.848;4.108;2023-05-24T08:43:54;18.92;;;3.90;;
19434;SDS011;9853;50.848;4.108;2023-05-24T08:45:59;22.58;;;4.03;;
19434;SDS011;9853;50.848;4.108;2023-05-24T08:48:02;15.73;;;3.53;;
19434;SDS011;9853;50.848;4.108;2023-05-24T08:50:07;16.45;;;3.20;;
19434;SDS011;9853;50.848;4.108;2023-05-24T08:52:08;22.05;;;3.10;;
19434;SDS011;9853;50.848;4.108;2023-05-24T08:54:10;15.13;;;3.65;;
19434;SDS011;9853;50.848;4.108;2023-05-24T08:56:16;19.10;;;3.72;;
19434;SDS011;9853;50.848;4.108;2023-05-24T08:58:18;21.90;;;3.83;;
19434;SDS011;9853;50.848;4.108;2023-05-24T09:00:19;17.05;;;3.65;;
19434;SDS011;9853;50.848;4.108;2023-05-24T09:02:20;21.00;;;3.78;;
19434;SDS011;9853;50.848;4.108;2023-05-24T09:04:21;17.23;;;3.45;;
19434;SDS011;9853;50.848;4.108;2023-05-24T09:06:24;17.90;;;3.45;;
19434;SDS011;9853;50.848;4.108;2023-05-24T09:08:26;16.27;;;2.92;;
19434;SDS011;9853;50.848;4.108;2023-05-24T09:10:28;16.20;;;3.38;;
19434;SDS011;9853;50.848;4.108;2023-05-24T09:12:31;14.30;;;3.13;;
19434;SDS011;9853;50.848;4.108;2023-05-24T09:14:33;9.00;;;2.42;;
19434;SDS011;9853;50.848;4.108;2023-05-24T09:16:34;15.50;;;3.17;;
19434;SDS011;9853;50.848;4.108;2023-05-24T09:18:35;13.48;;;3.50;;
19434;SDS011;9853;50.848;4.108;2023-05-24T09:20:35;14.77;;;3.15;;
19434;SDS011;9853;50.848;4.108;2023-05-24T09:22:36;14.52;;;3.05;;
19434;SDS011;9853;50.848;4.108;2023-05-24T09:24:40;12.30;;;2.95;;
19434;SDS011;9853;50.848;4.108;2023-05-24T09:26:41;13.32;;;3.25;;
19434;SDS011;9853;50.848;4.108;2023-05-24T09:28:42;17.77;;;3.45;;
19434;SDS011;9853;50.848;4.108;2023-05-24T09:30:56;25.70;;;4.20;;
19434;SDS011;9853;50.848;4.108;2023-05-24T09:32:59;19.10;;;3.92;;
19434;SDS011;9853;50.848;4.108;2023-05-24T09:35:00;18.65;;;3.55;;
19434;SDS011;9853;50.848;4.108;2023-05-24T09:37:01;19.05;;;4.10;;
19434;SDS011;9853;50.848;4.108;2023-05-24T09:39:05;16.17;;;3.45;;
19434;SDS011;9853;50.848;4.108;2023-05-24T09:41:09;17.70;;;3.50;;
19434;SDS011;9853;50.848;4.108;2023-05-24T09:43:10;12.98;;;3.17;;
19434;SDS011;9853;50.848;4.108;2023-05-24T09:45:11;18.70;;;3.13;;
19434;SDS011;9853;50.848;4.108;2023-05-24T09:47:12;11.90;;;2.40;;
19434;SDS011;9853;50.848;4.108;2023-05-24T09:49:14;12.75;;;2.65;;
19434;SDS011;9853;50.848;4.108;2023-05-24T09:51:15;10.63;;;2.88;;
19434;SDS011;9853;50.848;4.108;2023-05-24T09:53:18;13.52;;;3.03;;
19434;SDS011;9853;50.848;4.108;2023-05-24T09:55:21;8.73;;;2.42;;
19434;SDS011;9853;50.848;4.108;2023-05-24T09:57:23;10.05;;;2.65;;
19434;SDS011;9853;50.848;4.108;2023-05-24T09:59:24;6.53;;;2.63;;
19434;SDS011;9853;50.848;4.108;2023-05-24T10:01:25;10.43;;;2.80;;
19434;SDS011;9853;50.848;4.108;2023-05-24T10:03:27;11.95;;;3.53;;
19434;SDS011;9853;50.848;4.108;2023-05-24T10:05:28;13.45;;;3.38;;
19434;SDS011;9853;50.848;4.108;2023-05-24T10:07:29;14.57;;;3.08;;
19434;SDS011;9853;50.848;4.108;2023-05-24T10:09:32;9.35;;;2.72;;
19434;SDS011;9853;50.848;4.108;2023-05-24T10:11:35;12.13;;;3.40;;
19434;SDS011;9853;50.848;4.108;2023-05-24T10:13:36;11.30;;;3.17;;
19434;SDS011;9853;50.848;4.108;2023-05-24T10:15:38;10.38;;;3.20;;
19434;SDS011;9853;50.848;4.108;2023-05-24T10:17:39;12.65;;;3.17;;
19434;SDS011;9853;50.848;4.108;2023-05-24T10:19:40;14.10;;;3.10;;
19434;SDS011;9853;50.848;4.108;2023-05-24T10:21:41;18.00;;;3.47;;
19434;SDS011;9853;50.848;4.108;2023-05-24T10:23:43;13.25;;;3.00;;
19434;SDS011;9853;50.848;4.108;2023-05-24T10:25:51;11.00;;;3.53;;
19434;SDS011;9853;50.848;4.108;2023-05-24T10:28:00;16.30;;;2.97;;
19434;SDS011;9853;50.848;4.108;2023-05-24T10:30:08;15.20;;;3.13;;
19434;SDS011;9853;50.848;4.108;2023-05-24T10:32:23;15.25;;;3.88;;
19434;SDS011;9853;50.848;4.108;2023-05-24T10:34:30;9.98;;;3.38;;
19434;SDS011;9853;50.848;4.108;2023-05-24T10:36:31;11.60;;;3.42;;
19434;SDS011;9853;50.848;4.108;2023-05-24T10:38:36;13.60;;;3.10;;
19434;SDS011;9853;50.848;4.108;2023-05-24T10:40:41;15.60;;;3.78;;
19434;SDS011;9853;50.848;4.108;2023-05-24T10:42:43;22.88;;;4.13;;
19434;SDS011;9853;50.848;4.108;2023-05-24T10:44:44;14.63;;;3.72;;
19434;SDS011;9853;50.848;4.108;2023-05-24T10:49:16;13.00;;;4.03;;
19434;SDS011;9853;50.848;4.108;2023-05-24T10:51:37;14.00;;;3.80;;
19434;SDS011;9853;50.848;4.108;2023-05-24T10:53:38;12.52;;;3.60;;
19434;SDS011;9853;50.848;4.108;2023-05-24T10:55:55;12.98;;;3.75;;
19434;SDS011;9853;50.848;4.108;2023-05-24T10:58:00;9.90;;;3.30;;
19434;SDS011;9853;50.848;4.108;2023-05-24T11:02:27;13.65;;;3.50;;
19434;SDS011;9853;50.848;4.108;2023-05-24T11:04:41;13.32;;;3.97;;
19434;SDS011;9853;50.848;4.108;2023-05-24T11:06:46;18.20;;;3.75;;
19434;SDS011;9853;50.848;4.108;2023-05-24T11:08:48;15.60;;;3.17;;
19434;SDS011;9853;50.848;4.108;2023-05-24T11:10:49;13.80;;;4.10;;
19434;SDS011;9853;50.848;4.108;2023-05-24T11:12:56;16.70;;;3.90;;
19434;SDS011;9853;50.848;4.108;2023-05-24T11:15:03;13.57;;;4.00;;
19434;SDS011;9853;50.848;4.108;2023-05-24T11:17:11;18.30;;;4.30;;
19434;SDS011;9853;50.848;4.108;2023-05-24T11:19:15;16.70;;;4.88;;
19434;SDS011;9853;50.848;4.108;2023-05-24T11:21:20;20.67;;;4.32;;
19434;SDS011;9853;50.848;4.108;2023-05-24T11:23:22;23.30;;;4.35;;
19434;SDS011;9853;50.848;4.108;2023-05-24T11:25:25;13.23;;;3.58;;
19434;SDS011;9853;50.848;4.108;2023-05-24T11:27:26;17.35;;;4.15;;
19434;SDS011;9853;50.848;4.108;2023-05-24T11:29:28;42.00;;;4.63;;
19434;SDS011;9853;50.848;4.108;2023-05-24T11:31:29;25.20;;;3.92;;
19434;SDS011;9853;50.848;4.108;2023-05-24T11:33:30;9.82;;;3.75;;
19434;SDS011;9853;50.848;4.108;2023-05-24T11:35:32;15.73;;;3.72;;
19434;SDS011;9853;50.848;4.108;2023-05-24T11:37:33;19.48;;;4.53;;
19434;SDS011;9853;50.848;4.108;2023-05-24T11:39:34;12.18;;;3.60;;
19434;SDS011;9853;50.848;4.108;2023-05-24T11:41:37;14.13;;;3.88;;
19434;SDS011;9853;50.848;4.108;2023-05-24T11:43:38;17.52;;;4.68;;
19434;SDS011;9853;50.848;4.108;2023-05-24T11:45:41;14.73;;;3.95;;
19434;SDS011;9853;50.848;4.108;2023-05-24T11:47:43;15.60;;;3.85;;
19434;SDS011;9853;50.848;4.108;2023-05-24T11:49:48;13.52;;;3.65;;
19434;SDS011;9853;50.848;4.108;2023-05-24T11:51:49;20.73;;;4.50;;
19434;SDS011;9853;50.848;4.108;2023-05-24T11:53:54;13.65;;;3.78;;
19434;SDS011;9853;50.848;4.108;2023-05-24T11:55:56;15.43;;;4.57;;
19434;SDS011;9853;50.848;4.108;2023-05-24T11:57:57;15.85;;;3.70;;
19434;SDS011;9853;50.848;4.108;2023-05-24T12:00:00;11.80;;;3.63;;
19434;SDS011;9853;50.848;4.108;2023-05-24T12:02:04;13.70;;;3.58;;
19434;SDS011;9853;50.848;4.108;2023-05-24T12:04:07;11.00;;;3.13;;
19434;SDS011;9853;50.848;4.108;2023-05-24T12:06:10;14.75;;;3.65;;
19434;SDS011;9853;50.848;4.108;2023-05-24T12:08:11;16.35;;;3.80;;
19434;SDS011;9853;50.848;4.108;2023-05-24T12:10:14;12.48;;;3.58;;
19434;SDS011;9853;50.848;4.108;2023-05-24T12:12:15;16.05;;;4.03;;
19434;SDS011;9853;50.848;4.108;2023-05-24T12:14:21;16.00;;;3.65;;
19434;SDS011;9853;50.848;4.108;2023-05-24T12:16:23;15.82;;;4.03;;
19434;SDS011;9853;50.848;4.108;2023-05-24T12:18:25;14.15;;;3.70;;
19434;SDS011;9853;50.848;4.108;2023-05-24T12:20:26;14.27;;;3.45;;
19434;SDS011;9853;50.848;4.108;2023-05-24T12:22:28;18.48;;;3.45;;
19434;SDS011;9853;50.848;4.108;2023-05-24T12:24:31;14.07;;;3.75;;
19434;SDS011;9853;50.848;4.108;2023-05-24T12:26:33;15.77;;;4.00;;
19434;SDS011;9853;50.848;4.108;2023-05-24T12:28:44;14.32;;;4.03;;
19434;SDS011;9853;50.848;4.108;2023-05-24T12:30:51;18.40;;;4.15;;
19434;SDS011;9853;50.848;4.108;2023-05-24T12:32:52;13.20;;;3.80;;
19434;SDS011;9853;50.848;4.108;2023-05-24T12:34:53;20.00;;;4.28;;